createdAt,value
2018-11-23T00:00:59.680Z,1014.48
2018-11-23T00:02:08.937Z,1014.47
2018-11-23T00:03:17.622Z,1014.45
2018-11-23T00:04:26.539Z,1014.48
2018-11-23T00:05:35.224Z,1014.48
2018-11-23T00:06:44.156Z,1014.52
2018-11-23T00:07:52.838Z,1014.5
2018-11-23T00:09:01.508Z,1014.5
2018-11-23T00:10:11.213Z,1014.54
2018-11-23T00:11:20.204Z,1014.55
2018-11-23T00:12:28.889Z,1014.59
2018-11-23T00:13:37.576Z,1014.59
2018-11-23T00:14:46.252Z,1014.66
2018-11-23T00:15:54.931Z,1014.69
2018-11-23T00:17:03.605Z,1014.67
2018-11-23T00:18:12.544Z,1014.7
2018-11-23T00:19:21.216Z,1014.72
2018-11-23T00:20:29.889Z,1014.73
2018-11-23T00:21:38.563Z,1014.76
2018-11-23T00:22:47.243Z,1014.74
2018-11-23T00:23:55.922Z,1014.73
2018-11-23T00:25:04.598Z,1014.77
2018-11-23T00:26:13.295Z,1014.77
2018-11-23T00:27:21.980Z,1014.79
2018-11-23T00:28:30.904Z,1014.76
2018-11-23T00:29:39.577Z,1014.75
2018-11-23T00:30:48.510Z,1014.77
2018-11-23T00:31:57.220Z,1014.82
2018-11-23T00:33:06.163Z,1014.82
2018-11-23T00:34:15.091Z,1014.82
2018-11-23T00:35:23.786Z,1014.84
2018-11-23T00:36:32.467Z,1014.83
2018-11-23T00:37:41.400Z,1014.83
2018-11-23T00:38:50.084Z,1014.85
2018-11-23T00:39:58.768Z,1014.84
2018-11-23T00:41:07.452Z,1014.86
2018-11-23T00:42:16.134Z,1014.89
2018-11-23T00:43:25.064Z,1014.87
2018-11-23T00:44:34.008Z,1014.9
2018-11-23T00:45:43.003Z,1014.87
2018-11-23T00:46:52.082Z,1014.88
2018-11-23T00:48:01.269Z,1014.9
2018-11-23T00:49:10.202Z,1014.87
2018-11-23T00:50:19.132Z,1014.86
2018-11-23T00:51:28.336Z,1014.86
2018-11-23T00:52:37.008Z,1014.87
2018-11-23T00:53:45.945Z,1014.84
2018-11-23T00:54:54.616Z,1014.9
2018-11-23T00:56:03.568Z,1014.85
2018-11-23T00:57:12.246Z,1014.87
2018-11-23T00:58:20.920Z,1014.9
2018-11-23T00:59:29.591Z,1014.86
2018-11-23T01:00:38.348Z,1014.9
2018-11-23T01:01:47.026Z,1014.86
2018-11-23T01:02:55.711Z,1014.85
2018-11-23T01:04:04.639Z,1014.89
2018-11-23T01:05:13.315Z,1014.89
2018-11-23T01:06:21.996Z,1014.87
2018-11-23T01:07:30.679Z,1014.91
2018-11-23T01:08:39.352Z,1014.93
2018-11-23T01:09:48.020Z,1014.89
2018-11-23T01:10:56.694Z,1014.9
2018-11-23T01:12:05.368Z,1014.86
2018-11-23T01:13:14.061Z,1014.88
2018-11-23T01:14:22.734Z,1014.91
2018-11-23T01:15:31.411Z,1014.86
2018-11-23T01:16:40.088Z,1014.9
2018-11-23T01:17:48.779Z,1014.88
2018-11-23T01:18:57.457Z,1014.85
2018-11-23T01:20:06.133Z,1014.89
2018-11-23T01:21:14.803Z,1014.88
2018-11-23T01:22:23.487Z,1014.85
2018-11-23T01:23:32.177Z,1014.82
2018-11-23T01:24:41.125Z,1014.84
2018-11-23T01:25:49.820Z,1014.87
2018-11-23T01:26:58.743Z,1014.84
2018-11-23T01:28:07.431Z,1014.84
2018-11-23T01:29:16.107Z,1014.87
2018-11-23T01:30:24.779Z,1014.87
2018-11-23T01:31:34.056Z,1014.87
2018-11-23T01:32:42.737Z,1014.86
2018-11-23T01:33:51.421Z,1014.86
2018-11-23T01:35:00.354Z,1014.86
2018-11-23T01:36:09.030Z,1014.82
2018-11-23T01:37:17.963Z,1014.83
2018-11-23T01:38:26.930Z,1014.79
2018-11-23T01:39:35.604Z,1014.77
2018-11-23T01:40:44.526Z,1014.84
2018-11-23T01:41:53.207Z,1014.78
2018-11-23T01:43:01.934Z,1014.77
2018-11-23T01:44:10.623Z,1014.81
2018-11-23T01:45:19.555Z,1014.79
2018-11-23T01:46:28.476Z,1014.81
2018-11-23T01:47:37.162Z,1014.8
2018-11-23T01:48:46.122Z,1014.79
2018-11-23T01:49:54.824Z,1014.76
2018-11-23T01:51:03.501Z,1014.82
2018-11-23T01:52:12.186Z,1014.8
2018-11-23T01:53:21.113Z,1014.78
2018-11-23T01:54:29.796Z,1014.78
2018-11-23T01:55:38.720Z,1014.74
2018-11-23T01:56:47.406Z,1014.74
2018-11-23T01:57:56.122Z,1014.74
2018-11-23T01:59:04.813Z,1014.75
2018-11-23T02:00:13.488Z,1014.77
2018-11-23T02:01:22.168Z,1014.79
2018-11-23T02:02:31.104Z,1014.77
2018-11-23T02:03:39.781Z,1014.78
2018-11-23T02:04:48.467Z,1014.78
2018-11-23T02:05:57.142Z,1014.73
2018-11-23T02:07:05.824Z,1014.74
2018-11-23T02:08:14.745Z,1014.71
2018-11-23T02:09:23.446Z,1014.76
2018-11-23T02:10:32.375Z,1014.73
2018-11-23T02:11:41.322Z,1014.69
2018-11-23T02:12:50.248Z,1014.73
2018-11-23T02:13:58.938Z,1014.71
2018-11-23T02:15:07.612Z,1014.7
2018-11-23T02:16:16.573Z,1014.68
2018-11-23T02:17:25.242Z,1014.67
2018-11-23T02:18:33.921Z,1014.64
2018-11-23T02:19:42.602Z,1014.63
2018-11-23T02:20:51.553Z,1014.62
2018-11-23T02:22:00.235Z,1014.62
2018-11-23T02:23:09.156Z,1014.59
2018-11-23T02:24:17.842Z,1014.6
2018-11-23T02:25:26.512Z,1014.58
2018-11-23T02:26:35.197Z,1014.58
2018-11-23T02:27:44.129Z,1014.54
2018-11-23T02:28:53.070Z,1014.54
2018-11-23T02:30:01.997Z,1014.52
2018-11-23T02:31:11.709Z,1014.52
2018-11-23T02:32:20.375Z,1014.51
2018-11-23T02:33:29.055Z,1014.52
2018-11-23T02:34:37.735Z,1014.52
2018-11-23T02:35:46.423Z,1014.51
2018-11-23T02:36:55.099Z,1014.55
2018-11-23T02:38:04.042Z,1014.51
2018-11-23T02:39:12.709Z,1014.51
2018-11-23T02:40:21.396Z,1014.53
2018-11-23T02:41:30.386Z,1014.49
2018-11-23T02:42:39.060Z,1014.48
2018-11-23T02:43:47.998Z,1014.48
2018-11-23T02:44:56.662Z,1014.46
2018-11-23T02:46:05.352Z,1014.46
2018-11-23T02:47:14.043Z,1014.52
2018-11-23T02:48:22.730Z,1014.54
2018-11-23T02:49:31.905Z,1014.51
2018-11-23T02:50:40.850Z,1014.57
2018-11-23T02:51:49.776Z,1014.52
2018-11-23T02:52:58.712Z,1014.5
2018-11-23T02:54:07.379Z,1014.53
2018-11-23T02:55:16.325Z,1014.52
2018-11-23T02:56:25.279Z,1014.53
2018-11-23T02:57:33.956Z,1014.54
2018-11-23T02:58:42.904Z,1014.52
2018-11-23T02:59:51.838Z,1014.51
2018-11-23T03:01:00.514Z,1014.48
2018-11-23T03:02:09.189Z,1014.49
2018-11-23T03:03:17.873Z,1014.47
2018-11-23T03:04:26.798Z,1014.44
2018-11-23T03:05:35.734Z,1014.39
2018-11-23T03:06:44.666Z,1014.38
2018-11-23T03:07:53.360Z,1014.36
2018-11-23T03:09:02.574Z,1014.37
2018-11-23T03:10:11.259Z,1014.38
2018-11-23T03:11:20.189Z,1014.37
2018-11-23T03:12:28.881Z,1014.36
2018-11-23T03:13:37.553Z,1014.35
2018-11-23T03:14:46.224Z,1014.33
2018-11-23T03:15:54.900Z,1014.34
2018-11-23T03:17:03.826Z,1014.3
2018-11-23T03:18:12.532Z,1014.25
2018-11-23T03:19:21.201Z,1014.28
2018-11-23T03:20:29.880Z,1014.28
2018-11-23T03:21:38.546Z,1014.3
2018-11-23T03:22:47.245Z,1014.24
2018-11-23T03:23:56.168Z,1014.23
2018-11-23T03:25:05.101Z,1014.28
2018-11-23T03:26:13.775Z,1014.28
2018-11-23T03:27:22.461Z,1014.25
2018-11-23T03:28:31.137Z,1014.27
2018-11-23T03:29:39.818Z,1014.26
2018-11-23T03:30:48.739Z,1014.2
2018-11-23T03:31:58.443Z,1014.22
2018-11-23T03:33:08.171Z,1014.24
2018-11-23T03:34:17.111Z,1014.24
2018-11-23T03:35:25.794Z,1014.24
2018-11-23T03:36:34.719Z,1014.22
2018-11-23T03:37:44.855Z,1014.25
2018-11-23T03:38:53.680Z,1014.3
2018-11-23T03:40:02.371Z,1014.31
2018-11-23T03:41:11.544Z,1014.31
2018-11-23T03:42:20.231Z,1014.34
2018-11-23T03:43:28.902Z,1014.32
2018-11-23T03:44:37.835Z,1014.33
2018-11-23T03:45:46.503Z,1014.33
2018-11-23T03:46:55.439Z,1014.33
2018-11-23T03:48:04.124Z,1014.34
2018-11-23T03:49:13.070Z,1014.31
2018-11-23T03:50:21.750Z,1014.33
2018-11-23T03:51:30.695Z,1014.36
2018-11-23T03:52:39.627Z,1014.37
2018-11-23T03:53:48.297Z,1014.37
2018-11-23T03:54:56.979Z,1014.37
2018-11-23T03:56:06.183Z,1014.36
2018-11-23T03:57:14.864Z,1014.33
2018-11-23T03:58:23.794Z,1014.35
2018-11-23T03:59:33.011Z,1014.34
2018-11-23T04:00:41.687Z,1014.34
2018-11-23T04:01:50.648Z,1014.35
2018-11-23T04:02:59.581Z,1014.3
2018-11-23T04:04:08.260Z,1014.34
2018-11-23T04:05:16.930Z,1014.31
2018-11-23T04:06:25.867Z,1014.3
2018-11-23T04:07:34.536Z,1014.28
2018-11-23T04:08:43.474Z,1014.33
2018-11-23T04:09:52.151Z,1014.33
2018-11-23T04:11:01.082Z,1014.33
2018-11-23T04:12:09.759Z,1014.34
2018-11-23T04:13:18.431Z,1014.35
2018-11-23T04:14:27.102Z,1014.35
2018-11-23T04:15:36.041Z,1014.35
2018-11-23T04:16:44.717Z,1014.34
2018-11-23T04:17:53.383Z,1014.27
2018-11-23T04:19:02.333Z,1014.28
2018-11-23T04:20:11.265Z,1014.29
2018-11-23T04:21:20.247Z,1014.36
2018-11-23T04:22:28.918Z,1014.31
2018-11-23T04:23:37.848Z,1014.33
2018-11-23T04:24:46.520Z,1014.39
2018-11-23T04:25:55.197Z,1014.33
2018-11-23T04:27:04.632Z,1014.3
2018-11-23T04:28:13.570Z,1014.36
2018-11-23T04:29:22.511Z,1014.35
2018-11-23T04:30:31.180Z,1014.38
2018-11-23T04:31:39.861Z,1014.31
2018-11-23T04:32:48.795Z,1014.32
2018-11-23T04:33:57.473Z,1014.35
2018-11-23T04:35:06.154Z,1014.37
2018-11-23T04:36:14.840Z,1014.35
2018-11-23T04:37:23.549Z,1014.35
2018-11-23T04:38:32.222Z,1014.34
2018-11-23T04:39:40.910Z,1014.35
2018-11-23T04:40:49.599Z,1014.34
2018-11-23T04:41:58.272Z,1014.35
2018-11-23T04:43:07.201Z,1014.33
2018-11-23T04:44:16.156Z,1014.31
2018-11-23T04:45:25.083Z,1014.3
2018-11-23T04:46:34.015Z,1014.29
2018-11-23T04:47:43.193Z,1014.29
2018-11-23T04:48:51.867Z,1014.3
2018-11-23T04:50:01.320Z,1014.27
2018-11-23T04:51:10.610Z,1014.27
2018-11-23T04:52:19.284Z,1014.24
2018-11-23T04:53:28.211Z,1014.26
2018-11-23T04:54:37.149Z,1014.24
2018-11-23T04:55:45.828Z,1014.25
2018-11-23T04:56:54.505Z,1014.22
2018-11-23T04:58:03.425Z,1014.2
2018-11-23T04:59:12.109Z,1014.22
2018-11-23T05:00:20.781Z,1014.25
2018-11-23T05:01:29.966Z,1014.2
2018-11-23T05:02:38.639Z,1014.21
2018-11-23T05:03:47.358Z,1014.2
2018-11-23T05:04:56.286Z,1014.17
2018-11-23T05:06:05.468Z,1014.19
2018-11-23T05:07:14.153Z,1014.2
2018-11-23T05:08:23.072Z,1014.2
2018-11-23T05:09:31.745Z,1014.17
2018-11-23T05:10:40.442Z,1014.22
2018-11-23T05:11:50.278Z,1014.25
2018-11-23T05:12:59.051Z,1014.2
2018-11-23T05:14:07.732Z,1014.2
2018-11-23T05:15:16.414Z,1014.21
2018-11-23T05:16:25.130Z,1014.19
2018-11-23T05:17:34.061Z,1014.2
2018-11-23T05:18:42.992Z,1014.16
2018-11-23T05:19:51.671Z,1014.13
2018-11-23T05:21:00.346Z,1014.13
2018-11-23T05:22:09.024Z,1014.18
2018-11-23T05:23:17.952Z,1014.14
2018-11-23T05:24:26.874Z,1014.15
2018-11-23T05:25:35.548Z,1014.19
2018-11-23T05:26:44.234Z,1014.14
2018-11-23T05:27:52.906Z,1014.14
2018-11-23T05:29:01.594Z,1014.16
2018-11-23T05:30:10.776Z,1014.14
2018-11-23T05:31:19.708Z,1014.11
2018-11-23T05:32:28.384Z,1014.12
2018-11-23T05:33:37.316Z,1014.1
2018-11-23T05:34:46.236Z,1014.08
2018-11-23T05:35:55.199Z,1014.07
2018-11-23T05:37:04.388Z,1014.04
2018-11-23T05:38:13.323Z,1014.03
2018-11-23T05:39:21.994Z,1014
2018-11-23T05:40:30.674Z,1014
2018-11-23T05:41:39.372Z,1013.97
2018-11-23T05:42:48.096Z,1013.94
2018-11-23T05:44:04.386Z,1014
2018-11-23T05:45:13.305Z,1013.96
2018-11-23T05:46:21.987Z,1013.97
2018-11-23T05:47:30.655Z,1013.98
2018-11-23T05:48:39.589Z,1014.03
2018-11-23T05:49:48.503Z,1014.02
2018-11-23T05:50:57.440Z,1013.99
2018-11-23T05:52:06.369Z,1013.97
2018-11-23T05:53:15.052Z,1013.98
2018-11-23T05:54:23.718Z,1013.97
2018-11-23T05:55:32.409Z,1013.94
2018-11-23T05:56:41.088Z,1013.94
2018-11-23T05:57:49.766Z,1013.93
2018-11-23T05:58:58.751Z,1013.99
2018-11-23T06:00:07.672Z,1013.95
2018-11-23T06:01:16.605Z,1013.99
2018-11-23T06:02:25.281Z,1013.98
2018-11-23T06:03:34.247Z,1013.96
2018-11-23T06:04:43.039Z,1013.93
2018-11-23T06:05:52.006Z,1013.93
2018-11-23T06:07:00.939Z,1013.94
2018-11-23T06:08:09.975Z,1013.93
2018-11-23T06:09:18.901Z,1013.95
2018-11-23T06:10:27.582Z,1013.97
2018-11-23T06:11:36.531Z,1013.98
2018-11-23T06:12:45.212Z,1014
2018-11-23T06:13:54.156Z,1014.01
2018-11-23T06:15:03.092Z,1013.99
2018-11-23T06:16:12.004Z,1014.02
2018-11-23T06:17:20.682Z,1014.04
2018-11-23T06:18:29.617Z,1014.01
2018-11-23T06:19:38.297Z,1014
2018-11-23T06:20:46.982Z,1013.98
2018-11-23T06:21:55.900Z,1013.95
2018-11-23T06:23:05.083Z,1013.93
2018-11-23T06:24:13.764Z,1013.95
2018-11-23T06:25:22.708Z,1013.92
2018-11-23T06:26:31.918Z,1013.92
2018-11-23T06:27:40.850Z,1013.88
2018-11-23T06:28:49.775Z,1013.88
2018-11-23T06:29:58.714Z,1013.85
2018-11-23T06:31:07.895Z,1013.9
2018-11-23T06:32:16.840Z,1013.94
2018-11-23T06:33:25.522Z,1013.92
2018-11-23T06:34:34.453Z,1013.92
2018-11-23T06:35:43.124Z,1013.94
2018-11-23T06:36:51.805Z,1013.96
2018-11-23T06:38:00.732Z,1013.96
2018-11-23T06:39:09.412Z,1013.97
2018-11-23T06:40:18.621Z,1013.94
2018-11-23T06:41:27.305Z,1013.92
2018-11-23T06:42:42.144Z,1013.9
2018-11-23T06:43:51.127Z,1013.86
2018-11-23T06:44:59.808Z,1013.88
2018-11-23T06:46:08.517Z,1013.89
2018-11-23T06:47:17.706Z,1013.92
2018-11-23T06:48:26.378Z,1013.95
2018-11-23T06:49:35.340Z,1013.93
2018-11-23T06:50:44.012Z,1013.94
2018-11-23T06:51:52.989Z,1013.99
2018-11-23T06:53:01.668Z,1013.96
2018-11-23T06:54:14.342Z,1013.98
2018-11-23T06:55:23.449Z,1013.95
2018-11-23T06:56:32.128Z,1013.99
2018-11-23T06:57:40.807Z,1013.97
2018-11-23T06:58:49.500Z,1014
2018-11-23T06:59:58.688Z,1014.03
2018-11-23T07:01:07.671Z,1014.02
2018-11-23T07:02:16.347Z,1014
2018-11-23T07:03:25.016Z,1013.96
2018-11-23T07:04:33.697Z,1013.98
2018-11-23T07:05:42.870Z,1013.94
2018-11-23T07:06:51.857Z,1013.95
2018-11-23T07:08:00.789Z,1013.95
2018-11-23T07:09:09.726Z,1013.98
2018-11-23T07:10:18.400Z,1013.99
2018-11-23T07:11:27.081Z,1014.03
2018-11-23T07:12:36.008Z,1014.04
2018-11-23T07:13:44.711Z,1014.04
2018-11-23T07:14:53.756Z,1014.05
2018-11-23T07:16:02.587Z,1014.07
2018-11-23T07:17:12.320Z,1014.07
2018-11-23T07:18:21.646Z,1014.07
2018-11-23T07:19:31.011Z,1014.09
2018-11-23T07:20:39.836Z,1014.15
2018-11-23T07:21:48.780Z,1014.14
2018-11-23T07:22:57.718Z,1014.17
2018-11-23T07:24:06.660Z,1014.14
2018-11-23T07:25:15.340Z,1014.1
2018-11-23T07:26:24.320Z,1014.09
2018-11-23T07:27:32.987Z,1014.07
2018-11-23T07:28:41.671Z,1014.09
2018-11-23T07:29:50.589Z,1014.09
2018-11-23T07:31:02.383Z,1014.1
2018-11-23T07:32:11.234Z,1014.11
2018-11-23T07:33:20.168Z,1014.07
2018-11-23T07:34:29.096Z,1014.08
2018-11-23T07:35:37.769Z,1014.07
2018-11-23T07:36:46.441Z,1014.1
2018-11-23T07:37:55.120Z,1014.1
2018-11-23T07:39:03.819Z,1014.07
2018-11-23T07:40:13.240Z,1014.1
2018-11-23T07:41:21.921Z,1014.11
2018-11-23T07:42:30.590Z,1014.11
2018-11-23T07:43:39.270Z,1014.13
2018-11-23T07:44:47.938Z,1014.15
2018-11-23T07:45:56.619Z,1014.12
2018-11-23T07:47:05.566Z,1014.12
2018-11-23T07:48:14.763Z,1014.12
2018-11-23T07:49:23.499Z,1014.18
2018-11-23T07:50:32.431Z,1014.14
2018-11-23T07:51:41.353Z,1014.2
2018-11-23T07:52:50.025Z,1014.21
2018-11-23T07:53:58.762Z,1014.21
2018-11-23T07:55:07.691Z,1014.18
2018-11-23T07:56:16.376Z,1014.14
2018-11-23T07:57:25.303Z,1014.11
2018-11-23T07:58:34.555Z,1014.17
2018-11-23T07:59:43.487Z,1014.18
2018-11-23T08:00:52.775Z,1014.17
2018-11-23T08:02:02.644Z,1014.16
2018-11-23T08:03:11.349Z,1014.19
2018-11-23T08:04:20.273Z,1014.14
2018-11-23T08:05:28.952Z,1014.18
2018-11-23T08:06:37.909Z,1014.17
2018-11-23T08:07:46.587Z,1014.19
2018-11-23T08:08:55.778Z,1014.12
2018-11-23T08:10:04.521Z,1014.14
2018-11-23T08:11:13.318Z,1014.15
2018-11-23T08:12:22.283Z,1014.19
2018-11-23T08:13:31.225Z,1014.18
2018-11-23T08:14:40.408Z,1014.17
2018-11-23T08:15:49.101Z,1014.17
2018-11-23T08:16:57.773Z,1014.15
2018-11-23T08:18:06.456Z,1014.1
2018-11-23T08:19:15.131Z,1014.06
2018-11-23T08:20:23.817Z,1014.06
2018-11-23T08:21:32.758Z,1014.08
2018-11-23T08:22:41.689Z,1014.05
2018-11-23T08:23:50.369Z,1014.07
2018-11-23T08:24:59.050Z,1014.11
2018-11-23T08:26:08.239Z,1014.06
2018-11-23T08:27:17.165Z,1014.05
2018-11-23T08:28:25.838Z,1014.1
2018-11-23T08:29:34.511Z,1014.09
2018-11-23T08:30:43.199Z,1014.06
2018-11-23T08:31:51.870Z,1014.05
2018-11-23T08:33:00.550Z,1014.04
2018-11-23T08:34:09.726Z,1014.04
2018-11-23T08:35:18.422Z,1014.03
2018-11-23T08:36:27.602Z,1014
2018-11-23T08:37:36.291Z,1014
2018-11-23T08:38:45.481Z,1013.95
2018-11-23T08:39:54.149Z,1013.97
2018-11-23T08:41:02.831Z,1013.94
2018-11-23T08:42:12.099Z,1013.92
2018-11-23T08:43:21.043Z,1013.93
2018-11-23T08:44:29.728Z,1013.88
2018-11-23T08:45:38.402Z,1013.93
2018-11-23T08:46:47.079Z,1013.91
2018-11-23T08:47:55.805Z,1013.95
2018-11-23T08:49:04.507Z,1013.98
2018-11-23T08:50:13.178Z,1014.02
2018-11-23T08:51:22.115Z,1014.11
2018-11-23T08:52:31.299Z,1014.09
2018-11-23T08:53:40.496Z,1014.13
2018-11-23T08:54:49.167Z,1014.16
2018-11-23T08:55:58.117Z,1014.2
2018-11-23T08:57:06.786Z,1014.18
2018-11-23T08:58:15.729Z,1014.18
2018-11-23T08:59:24.650Z,1014.17
2018-11-23T09:00:33.330Z,1014.19
2018-11-23T09:01:42.005Z,1014.14
2018-11-23T09:02:50.938Z,1014.08
2018-11-23T09:03:59.879Z,1014.08
2018-11-23T09:05:08.560Z,1014.04
2018-11-23T09:06:17.247Z,1014.1
2018-11-23T09:07:25.921Z,1014.16
2018-11-23T09:08:34.867Z,1014.1
2018-11-23T09:09:43.539Z,1014.07
2018-11-23T09:10:52.499Z,1014.02
2018-11-23T09:12:01.418Z,1014.06
2018-11-23T09:13:10.187Z,1014.1
2018-11-23T09:14:18.857Z,1014.09
2018-11-23T09:15:27.540Z,1014.11
2018-11-23T09:16:36.216Z,1014.08
2018-11-23T09:17:44.905Z,1014.05
2018-11-23T09:18:53.856Z,1014.02
2018-11-23T09:20:02.605Z,1014
2018-11-23T09:21:11.785Z,1014
2018-11-23T09:22:23.391Z,1014.03
2018-11-23T09:23:33.052Z,1014.03
2018-11-23T09:24:41.985Z,1013.98
2018-11-23T09:25:50.671Z,1013.95
2018-11-23T09:26:59.345Z,1013.97
2018-11-23T09:28:08.027Z,1013.95
2018-11-23T09:29:16.946Z,1013.94
2018-11-23T09:30:26.318Z,1013.96
2018-11-23T09:31:34.998Z,1013.95
2018-11-23T09:32:43.685Z,1013.95
2018-11-23T09:33:52.360Z,1013.96
2018-11-23T09:35:01.045Z,1013.98
2018-11-23T09:36:10.276Z,1014.03
2018-11-23T09:37:18.959Z,1014.08
2018-11-23T09:38:27.633Z,1014.1
2018-11-23T09:39:36.409Z,1014.13
2018-11-23T09:40:45.296Z,1014.1
2018-11-23T09:41:54.229Z,1014.05
2018-11-23T09:43:03.160Z,1014.06
2018-11-23T09:44:11.829Z,1014.03
2018-11-23T09:45:20.523Z,1014.06
2018-11-23T09:46:29.462Z,1014.04
2018-11-23T09:47:38.144Z,1014.04
2018-11-23T09:48:47.091Z,1014.07
2018-11-23T09:49:56.019Z,1014.06
2018-11-23T09:51:04.955Z,1014.05
2018-11-23T09:52:13.936Z,1014.02
2018-11-23T09:53:22.858Z,1014.02
2018-11-23T09:54:31.792Z,1014.06
2018-11-23T09:55:40.464Z,1014.09
2018-11-23T09:56:49.401Z,1014.03
2018-11-23T09:57:58.585Z,1014.06
2018-11-23T09:59:07.535Z,1014.05
2018-11-23T10:00:16.217Z,1014.03
2018-11-23T10:01:25.011Z,1014
2018-11-23T10:02:33.998Z,1014
2018-11-23T10:03:43.184Z,1013.97
2018-11-23T10:04:52.183Z,1014.01
2018-11-23T10:06:01.568Z,1013.96
2018-11-23T10:07:10.423Z,1013.99
2018-11-23T10:08:19.357Z,1014
2018-11-23T10:09:28.285Z,1013.97
2018-11-23T10:10:36.956Z,1013.98
2018-11-23T10:11:45.640Z,1013.97
2018-11-23T10:12:54.572Z,1013.96
2018-11-23T10:14:03.250Z,1013.93
2018-11-23T10:15:11.956Z,1013.87
2018-11-23T10:16:20.634Z,1013.85
2018-11-23T10:17:29.311Z,1013.87
2018-11-23T10:18:38.266Z,1013.9
2018-11-23T10:19:46.949Z,1013.92
2018-11-23T10:21:00.854Z,1013.92
2018-11-23T10:22:09.529Z,1013.91
2018-11-23T10:23:18.986Z,1013.87
2018-11-23T10:24:27.693Z,1013.9
2018-11-23T10:25:36.400Z,1013.86
2018-11-23T10:26:45.090Z,1013.86
2018-11-23T10:27:53.790Z,1013.85
2018-11-23T10:29:02.796Z,1013.85
2018-11-23T10:30:11.472Z,1013.8
2018-11-23T10:31:20.154Z,1013.76
2018-11-23T10:32:29.093Z,1013.8
2018-11-23T10:33:37.779Z,1013.74
2018-11-23T10:34:46.449Z,1013.76
2018-11-23T10:35:55.813Z,1013.7
2018-11-23T10:37:05.107Z,1013.72
2018-11-23T10:38:13.792Z,1013.7
2018-11-23T10:39:22.558Z,1013.71
2018-11-23T10:40:31.240Z,1013.67
2018-11-23T10:41:40.161Z,1013.66
2018-11-23T10:42:49.098Z,1013.63
2018-11-23T10:43:57.771Z,1013.62
2018-11-23T10:45:06.461Z,1013.61
2018-11-23T10:46:15.151Z,1013.56
2018-11-23T10:47:24.104Z,1013.53
2018-11-23T10:48:32.776Z,1013.51
2018-11-23T10:49:41.463Z,1013.49
2018-11-23T10:50:50.134Z,1013.51
2018-11-23T10:51:59.152Z,1013.47
2018-11-23T10:53:08.144Z,1013.48
2018-11-23T10:54:17.078Z,1013.42
2018-11-23T10:55:26.013Z,1013.41
2018-11-23T10:56:34.697Z,1013.36
2018-11-23T10:57:43.386Z,1013.37
2018-11-23T10:58:52.059Z,1013.38
2018-11-23T11:00:01.048Z,1013.36
2018-11-23T11:01:09.726Z,1013.35
2018-11-23T11:02:18.418Z,1013.32
2018-11-23T11:03:27.093Z,1013.26
2018-11-23T11:04:36.083Z,1013.32
2018-11-23T11:05:45.036Z,1013.3
2018-11-23T11:06:54.609Z,1013.31
2018-11-23T11:08:03.290Z,1013.31
2018-11-23T11:09:12.788Z,1013.3
2018-11-23T11:10:21.467Z,1013.3
2018-11-23T11:11:30.402Z,1013.35
2018-11-23T11:12:39.086Z,1013.32
2018-11-23T11:13:47.765Z,1013.34
2018-11-23T11:14:56.700Z,1013.31
2018-11-23T11:16:05.665Z,1013.32
2018-11-23T11:17:14.365Z,1013.3
2018-11-23T11:18:23.287Z,1013.28
2018-11-23T11:19:31.973Z,1013.25
2018-11-23T11:20:40.887Z,1013.24
2018-11-23T11:21:49.567Z,1013.22
2018-11-23T11:22:58.238Z,1013.17
2018-11-23T11:24:07.446Z,1013.19
2018-11-23T11:25:16.370Z,1013.12
2018-11-23T11:26:25.091Z,1013.13
2018-11-23T11:27:34.037Z,1013.07
2018-11-23T11:28:42.976Z,1013.12
2018-11-23T11:29:51.653Z,1013.13
2018-11-23T11:31:00.367Z,1013.11
2018-11-23T11:32:09.045Z,1013.12
2018-11-23T11:33:18.488Z,1013.1
2018-11-23T11:34:27.732Z,1013.1
2018-11-23T11:35:36.419Z,1013.08
2018-11-23T11:36:45.101Z,1013.12
2018-11-23T11:37:53.776Z,1013.08
2018-11-23T11:39:02.463Z,1013.04
2018-11-23T11:40:11.149Z,1013.04
2018-11-23T11:41:20.347Z,1013.03
2018-11-23T11:42:29.022Z,1013.04
2018-11-23T11:43:37.706Z,1013.04
2018-11-23T11:44:46.641Z,1013.05
2018-11-23T11:45:55.333Z,1013.06
2018-11-23T11:47:04.522Z,1013.06
2018-11-23T11:48:13.217Z,1013.06
2018-11-23T11:49:21.901Z,1013.04
2018-11-23T11:50:30.837Z,1013.03
2018-11-23T11:51:39.784Z,1013
2018-11-23T11:52:48.459Z,1013.01
2018-11-23T11:53:57.136Z,1012.96
2018-11-23T11:55:06.073Z,1012.95
2018-11-23T11:56:15.009Z,1012.96
2018-11-23T11:57:23.682Z,1012.93
2018-11-23T11:58:32.362Z,1012.94
2018-11-23T11:59:41.043Z,1012.9
2018-11-23T12:00:49.979Z,1012.83
2018-11-23T12:01:58.906Z,1012.85
2018-11-23T12:03:12.560Z,1012.83
2018-11-23T12:04:21.241Z,1012.81
2018-11-23T12:05:30.439Z,1012.77
2018-11-23T12:06:39.126Z,1012.76
2018-11-23T12:07:48.053Z,1012.76
2018-11-23T12:08:56.732Z,1012.77
2018-11-23T12:10:05.419Z,1012.76
2018-11-23T12:11:14.365Z,1012.78
2018-11-23T12:12:23.038Z,1012.78
2018-11-23T12:13:31.716Z,1012.78
2018-11-23T12:14:40.641Z,1012.81
2018-11-23T12:15:49.324Z,1012.75
2018-11-23T12:16:58.255Z,1012.77
2018-11-23T12:18:07.204Z,1012.77
2018-11-23T12:19:15.879Z,1012.72
2018-11-23T12:20:24.574Z,1012.74
2018-11-23T12:21:33.253Z,1012.73
2018-11-23T12:22:42.186Z,1012.7
2018-11-23T12:23:50.872Z,1012.65
2018-11-23T12:24:59.819Z,1012.65
2018-11-23T12:26:08.500Z,1012.63
2018-11-23T12:27:17.186Z,1012.63
2018-11-23T12:28:25.869Z,1012.61
2018-11-23T12:29:34.552Z,1012.6
2018-11-23T12:30:43.233Z,1012.59
2018-11-23T12:31:51.909Z,1012.54
2018-11-23T12:33:00.592Z,1012.59
2018-11-23T12:34:09.270Z,1012.55
2018-11-23T12:35:17.956Z,1012.5
2018-11-23T12:36:27.155Z,1012.5
2018-11-23T12:37:35.832Z,1012.47
2018-11-23T12:38:44.520Z,1012.46
2018-11-23T12:39:53.196Z,1012.41
2018-11-23T12:41:02.895Z,1012.39
2018-11-23T12:42:11.572Z,1012.39
2018-11-23T12:43:20.265Z,1012.37
2018-11-23T12:44:29.202Z,1012.34
2018-11-23T12:45:37.882Z,1012.39
2018-11-23T12:46:46.818Z,1012.37
2018-11-23T12:47:55.499Z,1012.39
2018-11-23T12:49:04.965Z,1012.39
2018-11-23T12:50:13.648Z,1012.4
2018-11-23T12:51:22.588Z,1012.39
2018-11-23T12:52:31.513Z,1012.38
2018-11-23T12:53:40.699Z,1012.33
2018-11-23T12:54:49.642Z,1012.3
2018-11-23T12:55:58.583Z,1012.32
2018-11-23T12:57:07.306Z,1012.3
2018-11-23T12:58:16.259Z,1012.3
2018-11-23T12:59:24.937Z,1012.32
2018-11-23T13:00:33.624Z,1012.29
2018-11-23T13:01:42.303Z,1012.27
2018-11-23T13:02:51.488Z,1012.25
2018-11-23T13:04:00.427Z,1012.27
2018-11-23T13:05:09.623Z,1012.21
2018-11-23T13:06:18.313Z,1012.22
2018-11-23T13:07:27.334Z,1012.22
2018-11-23T13:08:36.020Z,1012.21
2018-11-23T13:09:44.944Z,1012.2
2018-11-23T13:10:53.626Z,1012.18
2018-11-23T13:12:02.563Z,1012.17
2018-11-23T13:13:11.258Z,1012.17
2018-11-23T13:14:19.928Z,1012.14
2018-11-23T13:15:28.614Z,1012.16
2018-11-23T13:16:37.296Z,1012.12
2018-11-23T13:17:46.526Z,1012.12
2018-11-23T13:18:55.208Z,1012.15
2018-11-23T13:20:04.149Z,1012.1
2018-11-23T13:21:12.828Z,1012.18
2018-11-23T13:22:22.283Z,1012.14
2018-11-23T13:23:31.225Z,1012.08
2018-11-23T13:24:39.898Z,1012.06
2018-11-23T13:25:48.579Z,1012.01
2018-11-23T13:26:57.521Z,1012.02
2018-11-23T13:28:06.211Z,1012
2018-11-23T13:29:16.135Z,1012.02
2018-11-23T13:30:25.295Z,1012.02
2018-11-23T13:31:33.979Z,1012.03
2018-11-23T13:32:42.673Z,1012.05
2018-11-23T13:33:51.354Z,1012.02
2018-11-23T13:35:00.292Z,1012
2018-11-23T13:36:09.223Z,1012
2018-11-23T13:37:17.912Z,1011.98
2018-11-23T13:38:26.596Z,1011.95
2018-11-23T13:39:35.267Z,1011.91
2018-11-23T13:40:44.207Z,1011.9
2018-11-23T13:41:52.886Z,1011.93
2018-11-23T13:43:01.828Z,1011.91
2018-11-23T13:44:10.501Z,1011.93
2018-11-23T13:45:19.195Z,1011.94
2018-11-23T13:46:28.383Z,1011.94
2018-11-23T13:47:37.336Z,1011.92
2018-11-23T13:48:46.260Z,1011.92
2018-11-23T13:49:54.956Z,1011.9
2018-11-23T13:51:03.637Z,1011.93
2018-11-23T13:52:12.329Z,1011.89
2018-11-23T13:53:21.265Z,1011.86
2018-11-23T13:54:30.449Z,1011.82
2018-11-23T13:55:39.369Z,1011.83
2018-11-23T13:56:48.304Z,1011.87
2018-11-23T13:57:57.247Z,1011.83